EW3803 Weather Reports


time (UTC)temp
C
wind
direction
speed
KPH
gust
KPH
rain 1hr
cm
rain 24hr
cm
rain mn
cm
humidity
%
barometer
mb
20180421013326 14 296 0.0 8.0 0.03 0.56 0.05 92 1012.7
20180421011828 14 55 11.3 19.3 0.05 0.56 0.05 92 1012.6
20180421010323 14 291 0.0 11.3 0.05 0.56 0.05 92 1014.2
20180421004823 14 271 4.8 8.0 0.03 0.53 0.03 91 1013.8
20180421003320 14 57 6.4 11.3 0.03 0.53 0.03 91 1013.3
20180421001820 14 88 6.4 12.9 0.00 0.51 0.00 90 1014.0
20180421000317 15 86 3.2 9.7 0.00 0.51 0.00 89 1013.9
20180420234918 15 88 3.2 9.7 0.00 0.51 0.00 89 1013.9
20180420233313 15 88 4.8 9.7 0.00 0.51 0.00 88 1013.6
20180420231810 15 171 1.6 8.0 0.00 0.51 0.00 88 1013.9
20180420230309 15 200 4.8 9.7 0.00 0.51 0.00 88 1013.8
20180420224807 15 196 1.6 8.0 0.00 0.51 0.51 88 1013.4
20180420223305 15 194 3.2 8.0 0.00 0.51 0.51 88 1013.9
20180420221808 15 190 3.2 8.0 0.00 0.51 0.51 87 1013.9
20180420220303 15 200 6.4 11.3 0.00 0.51 0.51 87 1014.1
20180420214807 15 192 6.4 11.3 0.00 0.51 0.51 87 1014.0
20180420213306 15 188 1.6 4.8 0.00 0.51 0.51 87 1013.9
20180420211802 15 194 0.0 3.2 0.00 0.51 0.51 87 1014.0
20180420210306 15 194 0.0 3.2 0.00 0.51 0.51 86 1013.5
20180420204802 16 194 1.6 3.2 0.00 0.51 0.51 86 1013.4
20180420203306 16 194 0.0 4.8 0.00 0.51 0.51 85 1012.9
20180420201801 16 194 1.6 9.7 0.00 0.51 0.51 84 1013.0
20180420200303 16 145 8.0 16.1 0.00 0.51 0.51 83 1012.9
20180420194801 16 157 9.7 16.1 0.00 0.51 0.51 83 1012.7
20180420193300 16 194 8.0 22.5 0.00 0.51 0.51 82 1012.7
20180420191758 17 142 12.9 33.8 0.00 0.51 0.51 80 1012.0
20180420190257 17 92 17.7 38.6 0.00 0.51 0.51 78 1011.2
20180420184800 17 117 19.3 37.0 0.00 0.51 0.51 78 1011.0
20180420183300 17 105 17.7 33.8 0.00 0.51 0.51 78 1010.9
20180420181800 18 94 17.7 35.4 0.13 0.51 0.51 77 1010.8
20180420180255 18 110 16.1 41.8 0.25 0.51 0.51 77 1011.0
20180420174757 17 116 24.1 43.5 0.33 0.51 0.51 78 1011.1
20180420173256 16 69 27.4 49.9 0.38 0.51 0.51 85 1011.3
20180420171752 16 84 20.9 30.6 0.30 0.41 0.41 87 1011.0
20180420170256 16 86 17.7 27.4 0.20 0.25 0.25 86 1011.5
20180420164752 16 91 16.1 27.4 0.15 0.18 0.18 82 1012.3
20180420163254 16 91 14.5 30.6 0.13 0.15 0.15 82 1012.9
20180420161749 17 140 12.9 24.1 0.10 0.10 0.10 82 1012.7
20180420160248 16 105 12.9 17.7 0.05 0.05 0.05 84 1012.8
20180420154747 16 9 0.0 1.6 0.05 0.05 0.05 83 1012.9
20180420153247 16 9 0.0 3.2 0.03 0.03 0.03 81 1012.8
20180420151748 16 9 0.0 3.2 0.00 0.00 0.00 79 1012.7
20180420150246 17 351 4.8 8.0 0.00 0.00 0.00 78 1012.7
20180420144743 17 337 1.6 4.8 0.00 0.00 0.00 77 1013.2
20180420143244 17 61 3.2 8.0 0.00 0.00 0.00 77 1013.0
20180420141743 17 48 9.7 17.7 0.00 0.00 0.00 77 1012.6
20180420140243 16 24 17.7 24.1 0.00 0.00 0.00 78 1012.2
20180420134742 16 319 8.0 16.1 0.00 0.00 0.00 78 1012.8
20180420133241 17 349 11.3 14.5 0.00 0.00 0.00 76 1012.9
20180420131742 17 308 4.8 11.3 0.00 0.00 0.00 75 1013.4
20180420130243 17 294 3.2 9.7 0.00 0.00 0.00 74 1013.7
20180420124738 17 264 4.8 11.3 0.00 0.00 0.00 76 1013.6
20180420123242 16 258 4.8 11.3 0.00 0.00 0.00 75 1013.5
20180420121738 17 258 8.0 14.5 0.00 0.00 0.00 74 1013.2
20180420120238 17 241 6.4 11.3 0.00 0.00 0.00 73 1013.6
20180420114737 17 248 4.8 14.5 0.00 0.00 0.00 73 1014.1
20180420113236 18 234 14.5 25.7 0.00 0.00 0.00 68 1013.7
20180420111732 19 194 11.3 27.4 0.00 0.00 0.00 65 1012.7
20180420110230 18 182 16.1 30.6 0.00 0.00 0.00 68 1013.1
20180420104731 18 217 14.5 37.0 0.00 0.00 0.00 68 1013.2
20180420103229 18 121 17.7 41.8 0.00 0.00 0.00 69 1011.6
20180420101724 18 127 20.9 40.2 0.00 0.00 0.00 70 1010.9
20180420100221 17 67 6.4 33.8 0.00 0.00 0.00 72 1010.8
20180420094717 17 114 24.1 37.0 0.00 0.00 0.00 71 1010.5
20180420093215 17 120 20.9 37.0 0.00 0.00 0.00 71 1010.3
20180420091716 16 105 20.9 38.6 0.00 0.00 0.00 74 1010.1
20180420090210 16 84 24.1 35.4 0.00 0.00 0.00 74 1009.9
20180420084709 16 85 27.4 40.2 0.00 0.00 0.00 74 1010.6
20180420083205 16 113 20.9 32.2 0.00 0.00 0.00 77 1011.3
20180420081706 15 89 14.5 24.1 0.00 0.00 0.00 78 1012.2
20180420080202 15 121 12.9 16.1 0.00 0.00 0.00 78 1012.6
20180420074703 15 164 9.7 17.7 0.00 0.00 0.00 77 1012.8
20180420073201 15 173 8.0 25.7 0.00 0.00 0.00 75 1013.0
20180420071701 15 90 12.9 22.5 0.00 0.00 0.00 75 1011.8
20180420070159 15 96 14.5 25.7 0.00 0.00 0.00 75 1011.9
20180420064659 15 89 11.3 20.9 0.00 0.00 0.00 76 1011.8
20180420063158 15 116 8.0 17.7 0.00 0.00 0.00 77 1011.9
20180420061659 15 92 16.1 25.7 0.00 0.00 0.00 77 1011.3
20180420060157 15 82 17.7 25.7 0.00 0.00 0.00 77 1011.2
20180420054700 15 94 20.9 37.0 0.00 0.00 0.00 74 1010.8
20180420053157 15 96 20.9 37.0 0.00 0.00 0.00 76 1010.8
20180420051653 15 92 17.7 27.4 0.00 0.00 0.00 76 1010.7
20180420050151 15 107 20.9 37.0 0.00 0.00 0.00 77 1011.1
20180420044746 15 126 16.1 32.2 0.00 0.00 0.00 78 1011.3
20180420043147 15 112 19.3 25.7 0.00 0.00 0.00 79 1011.6
20180420041641 15 129 11.3 22.5 0.00 0.00 0.00 79 1011.9
20180420040141 15 126 11.3 22.5 0.00 0.00 0.00 78 1012.1
20180420034639 15 115 17.7 25.7 0.00 0.00 0.00 77 1012.0
20180420033139 15 121 14.5 24.1 0.00 0.00 0.00 76 1011.8
20180420031639 15 126 17.7 25.7 0.00 0.00 0.00 75 1011.8
20180420030137 15 142 16.1 29.0 0.00 0.00 0.00 75 1011.8
20180420024635 16 148 14.5 22.5 0.00 0.00 0.00 74 1012.1
20180420023135 16 110 14.5 20.9 0.00 0.00 0.00 77 1011.9
20180420021631 15 111 11.3 19.3 0.00 0.00 0.00 85 1012.2
20180420020136 13 121 9.7 16.1 0.00 0.00 0.00 92 1012.5
20180420014622 14 120 6.4 11.3 0.00 0.00 0.00 94 1012.8